sensor_id;sensor_type;location;lat;lon;timestamp;temperature;humidity
56322;DHT22;42227;6.376;-10.782;2023-05-23T00:01:30;29.70;36.00
56322;DHT22;42227;6.376;-10.782;2023-05-23T00:03:59;29.80;35.20
56322;DHT22;42227;6.376;-10.782;2023-05-23T00:06:28;29.80;35.60
56322;DHT22;42227;6.376;-10.782;2023-05-23T00:08:57;29.70;36.10
56322;DHT22;42227;6.376;-10.782;2023-05-23T00:11:25;29.40;37.30
56322;DHT22;42227;6.376;-10.782;2023-05-23T00:13:55;29.30;37.50
56322;DHT22;42227;6.376;-10.782;2023-05-23T00:16:23;29.40;38.00
56322;DHT22;42227;6.376;-10.782;2023-05-23T00:18:52;29.60;36.20
56322;DHT22;42227;6.376;-10.782;2023-05-23T00:21:20;29.70;35.90
56322;DHT22;42227;6.376;-10.782;2023-05-23T00:23:48;29.70;36.30
56322;DHT22;42227;6.376;-10.782;2023-05-23T00:26:17;29.50;36.40
56322;DHT22;42227;6.376;-10.782;2023-05-23T00:28:46;29.70;36.00
56322;DHT22;42227;6.376;-10.782;2023-05-23T00:31:14;29.60;36.30
56322;DHT22;42227;6.376;-10.782;2023-05-23T00:33:43;29.40;37.10
56322;DHT22;42227;6.376;-10.782;2023-05-23T00:38:13;29.40;38.50
56322;DHT22;42227;6.376;-10.782;2023-05-23T00:40:45;29.20;38.60
56322;DHT22;42227;6.376;-10.782;2023-05-23T00:43:17;29.30;40.00
56322;DHT22;42227;6.376;-10.782;2023-05-23T00:45:47;29.50;38.40
56322;DHT22;42227;6.376;-10.782;2023-05-23T00:48:16;29.50;38.20
56322;DHT22;42227;6.376;-10.782;2023-05-23T00:50:45;29.60;38.20
56322;DHT22;42227;6.376;-10.782;2023-05-23T00:53:13;29.70;38.20
56322;DHT22;42227;6.376;-10.782;2023-05-23T00:55:43;29.70;37.50
56322;DHT22;42227;6.376;-10.782;2023-05-23T00:58:13;29.70;37.40
56322;DHT22;42227;6.376;-10.782;2023-05-23T01:00:42;29.60;37.80
56322;DHT22;42227;6.376;-10.782;2023-05-23T01:03:11;29.60;36.80
56322;DHT22;42227;6.376;-10.782;2023-05-23T01:05:40;29.70;36.80
56322;DHT22;42227;6.376;-10.782;2023-05-23T01:08:09;29.80;35.60
56322;DHT22;42227;6.376;-10.782;2023-05-23T01:10:38;29.90;34.70
56322;DHT22;42227;6.376;-10.782;2023-05-23T01:16:13;29.90;35.90
56322;DHT22;42227;6.376;-10.782;2023-05-23T01:18:50;29.90;35.40
56322;DHT22;42227;6.376;-10.782;2023-05-23T01:21:22;29.90;35.20
56322;DHT22;42227;6.376;-10.782;2023-05-23T01:29:35;29.90;35.20
56322;DHT22;42227;6.376;-10.782;2023-05-23T01:32:09;29.90;35.20
56322;DHT22;42227;6.376;-10.782;2023-05-23T01:34:39;30.00;35.00
56322;DHT22;42227;6.376;-10.782;2023-05-23T01:37:10;30.00;34.10
56322;DHT22;42227;6.376;-10.782;2023-05-23T01:39:38;29.80;34.40
56322;DHT22;42227;6.376;-10.782;2023-05-23T01:42:07;29.60;36.50
56322;DHT22;42227;6.376;-10.782;2023-05-23T01:44:36;29.40;37.60
56322;DHT22;42227;6.376;-10.782;2023-05-23T01:47:07;29.30;41.40
56322;DHT22;42227;6.376;-10.782;2023-05-23T01:49:37;29.30;43.20
56322;DHT22;42227;6.376;-10.782;2023-05-23T01:52:06;29.20;43.80
56322;DHT22;42227;6.376;-10.782;2023-05-23T01:54:37;29.10;45.50
56322;DHT22;42227;6.376;-10.782;2023-05-23T01:57:06;28.80;46.60
56322;DHT22;42227;6.376;-10.782;2023-05-23T01:59:35;28.80;47.10
56322;DHT22;42227;6.376;-10.782;2023-05-23T02:02:05;28.30;50.40
56322;DHT22;42227;6.376;-10.782;2023-05-23T02:04:33;28.20;51.90
56322;DHT22;42227;6.376;-10.782;2023-05-23T02:07:02;28.30;51.20
56322;DHT22;42227;6.376;-10.782;2023-05-23T02:09:30;28.40;51.40
56322;DHT22;42227;6.376;-10.782;2023-05-23T02:11:59;28.40;50.90
56322;DHT22;42227;6.376;-10.782;2023-05-23T02:14:27;28.50;50.40
56322;DHT22;42227;6.376;-10.782;2023-05-23T02:16:55;28.60;49.50
56322;DHT22;42227;6.376;-10.782;2023-05-23T02:19:24;28.40;49.50
56322;DHT22;42227;6.376;-10.782;2023-05-23T02:21:53;28.30;50.50
56322;DHT22;42227;6.376;-10.782;2023-05-23T02:24:21;28.10;52.40
56322;DHT22;42227;6.376;-10.782;2023-05-23T02:26:50;28.00;54.00
56322;DHT22;42227;6.376;-10.782;2023-05-23T02:29:19;27.90;54.50
56322;DHT22;42227;6.376;-10.782;2023-05-23T02:31:47;28.00;55.10
56322;DHT22;42227;6.376;-10.782;2023-05-23T02:34:16;28.10;53.20
56322;DHT22;42227;6.376;-10.782;2023-05-23T02:36:44;28.20;53.20
56322;DHT22;42227;6.376;-10.782;2023-05-23T02:39:13;28.30;52.30
56322;DHT22;42227;6.376;-10.782;2023-05-23T02:41:42;28.00;52.10
56322;DHT22;42227;6.376;-10.782;2023-05-23T02:44:10;27.80;53.90
56322;DHT22;42227;6.376;-10.782;2023-05-23T02:46:39;27.60;55.40
56322;DHT22;42227;6.376;-10.782;2023-05-23T02:49:07;27.50;57.60
56322;DHT22;42227;6.376;-10.782;2023-05-23T02:51:36;27.80;58.40
56322;DHT22;42227;6.376;-10.782;2023-05-23T02:54:04;28.00;56.00
56322;DHT22;42227;6.376;-10.782;2023-05-23T02:56:36;28.30;54.60
56322;DHT22;42227;6.376;-10.782;2023-05-23T02:59:04;28.20;52.80
56322;DHT22;42227;6.376;-10.782;2023-05-23T03:01:33;28.20;52.60
56322;DHT22;42227;6.376;-10.782;2023-05-23T03:04:01;28.30;53.50
56322;DHT22;42227;6.376;-10.782;2023-05-23T03:06:36;28.20;52.80
56322;DHT22;42227;6.376;-10.782;2023-05-23T03:09:08;28.30;52.10
56322;DHT22;42227;6.376;-10.782;2023-05-23T03:11:36;28.10;52.00
56322;DHT22;42227;6.376;-10.782;2023-05-23T03:14:10;27.80;53.90
56322;DHT22;42227;6.376;-10.782;2023-05-23T03:16:38;27.70;56.40
56322;DHT22;42227;6.376;-10.782;2023-05-23T03:19:07;27.80;56.60
56322;DHT22;42227;6.376;-10.782;2023-05-23T03:21:35;27.90;55.50
56322;DHT22;42227;6.376;-10.782;2023-05-23T03:24:04;28.20;54.50
56322;DHT22;42227;6.376;-10.782;2023-05-23T03:26:32;28.40;52.60
56322;DHT22;42227;6.376;-10.782;2023-05-23T03:29:01;28.40;51.90
56322;DHT22;42227;6.376;-10.782;2023-05-23T03:31:29;28.50;50.80
56322;DHT22;42227;6.376;-10.782;2023-05-23T03:33:58;28.30;50.90
56322;DHT22;42227;6.376;-10.782;2023-05-23T03:36:26;28.10;52.90
56322;DHT22;42227;6.376;-10.782;2023-05-23T03:38:55;28.10;53.10
56322;DHT22;42227;6.376;-10.782;2023-05-23T03:41:24;28.10;54.30
56322;DHT22;42227;6.376;-10.782;2023-05-23T03:43:54;28.10;52.80
56322;DHT22;42227;6.376;-10.782;2023-05-23T03:46:22;28.10;53.40
56322;DHT22;42227;6.376;-10.782;2023-05-23T03:48:51;27.90;54.30
56322;DHT22;42227;6.376;-10.782;2023-05-23T03:51:19;27.90;55.50
56322;DHT22;42227;6.376;-10.782;2023-05-23T03:53:48;28.00;54.40
56322;DHT22;42227;6.376;-10.782;2023-05-23T03:56:17;27.90;55.00
56322;DHT22;42227;6.376;-10.782;2023-05-23T03:58:45;27.90;55.10
56322;DHT22;42227;6.376;-10.782;2023-05-23T04:01:15;27.80;55.00
56322;DHT22;42227;6.376;-10.782;2023-05-23T04:03:45;27.60;56.50
56322;DHT22;42227;6.376;-10.782;2023-05-23T04:06:15;27.40;58.80
56322;DHT22;42227;6.376;-10.782;2023-05-23T04:08:45;27.40;59.90
56322;DHT22;42227;6.376;-10.782;2023-05-23T04:11:14;27.50;60.80
56322;DHT22;42227;6.376;-10.782;2023-05-23T04:13:42;27.90;58.90
56322;DHT22;42227;6.376;-10.782;2023-05-23T04:16:10;28.10;56.10
56322;DHT22;42227;6.376;-10.782;2023-05-23T04:18:40;28.00;55.50
56322;DHT22;42227;6.376;-10.782;2023-05-23T04:25:12;27.60;51.10
56322;DHT22;42227;6.376;-10.782;2023-05-23T04:27:49;27.10;48.90
56322;DHT22;42227;6.376;-10.782;2023-05-23T04:30:20;26.80;48.00
56322;DHT22;42227;6.376;-10.782;2023-05-23T04:32:59;26.40;48.50
56322;DHT22;42227;6.376;-10.782;2023-05-23T04:35:29;26.10;50.50
56322;DHT22;42227;6.376;-10.782;2023-05-23T04:37:57;25.70;52.80
56322;DHT22;42227;6.376;-10.782;2023-05-23T04:40:28;25.60;55.30
56322;DHT22;42227;6.376;-10.782;2023-05-23T04:43:17;25.80;55.30
56322;DHT22;42227;6.376;-10.782;2023-05-23T04:45:48;25.30;56.30
56322;DHT22;42227;6.376;-10.782;2023-05-23T04:48:43;24.90;58.90
56322;DHT22;42227;6.376;-10.782;2023-05-23T04:51:12;24.80;65.90
56322;DHT22;42227;6.376;-10.782;2023-05-23T04:53:51;24.80;65.40
56322;DHT22;42227;6.376;-10.782;2023-05-23T04:56:19;24.60;64.00
56322;DHT22;42227;6.376;-10.782;2023-05-23T04:58:48;24.60;65.30
56322;DHT22;42227;6.376;-10.782;2023-05-23T05:01:17;24.70;65.80
56322;DHT22;42227;6.376;-10.782;2023-05-23T05:03:48;24.70;63.90
56322;DHT22;42227;6.376;-10.782;2023-05-23T05:06:17;24.70;65.20
56322;DHT22;42227;6.376;-10.782;2023-05-23T05:08:46;24.80;66.40
56322;DHT22;42227;6.376;-10.782;2023-05-23T05:11:15;24.60;64.60
56322;DHT22;42227;6.376;-10.782;2023-05-23T05:13:43;24.60;63.90
56322;DHT22;42227;6.376;-10.782;2023-05-23T05:16:13;24.70;63.80
56322;DHT22;42227;6.376;-10.782;2023-05-23T05:18:41;24.90;63.60
56322;DHT22;42227;6.376;-10.782;2023-05-23T05:21:09;24.90;62.30
56322;DHT22;42227;6.376;-10.782;2023-05-23T05:23:38;24.90;61.10
56322;DHT22;42227;6.376;-10.782;2023-05-23T05:26:08;24.60;62.90
56322;DHT22;42227;6.376;-10.782;2023-05-23T05:28:37;24.30;65.00
56322;DHT22;42227;6.376;-10.782;2023-05-23T05:31:05;24.50;67.20
56322;DHT22;42227;6.376;-10.782;2023-05-23T05:33:35;24.50;67.10
56322;DHT22;42227;6.376;-10.782;2023-05-23T05:36:12;24.80;67.20
56322;DHT22;42227;6.376;-10.782;2023-05-23T05:38:42;24.80;66.00
56322;DHT22;42227;6.376;-10.782;2023-05-23T05:41:11;25.00;64.80
56322;DHT22;42227;6.376;-10.782;2023-05-23T05:43:46;25.00;63.60
56322;DHT22;42227;6.376;-10.782;2023-05-23T05:46:14;24.80;62.90
56322;DHT22;42227;6.376;-10.782;2023-05-23T05:48:44;24.60;65.10
56322;DHT22;42227;6.376;-10.782;2023-05-23T05:51:14;24.50;66.60
56322;DHT22;42227;6.376;-10.782;2023-05-23T05:53:42;24.60;66.20
56322;DHT22;42227;6.376;-10.782;2023-05-23T05:56:11;24.70;66.90
56322;DHT22;42227;6.376;-10.782;2023-05-23T05:58:39;24.50;66.60
56322;DHT22;42227;6.376;-10.782;2023-05-23T06:01:11;24.50;65.00
56322;DHT22;42227;6.376;-10.782;2023-05-23T06:03:41;24.60;64.90
56322;DHT22;42227;6.376;-10.782;2023-05-23T06:06:10;24.40;65.60
56322;DHT22;42227;6.376;-10.782;2023-05-23T06:08:40;24.50;65.70
56322;DHT22;42227;6.376;-10.782;2023-05-23T06:11:14;24.60;65.30
56322;DHT22;42227;6.376;-10.782;2023-05-23T06:13:43;24.50;64.70
56322;DHT22;42227;6.376;-10.782;2023-05-23T06:16:11;24.50;66.30
56322;DHT22;42227;6.376;-10.782;2023-05-23T06:18:41;24.80;65.10
56322;DHT22;42227;6.376;-10.782;2023-05-23T06:21:11;25.00;63.50
56322;DHT22;42227;6.376;-10.782;2023-05-23T06:23:40;25.00;61.90
56322;DHT22;42227;6.376;-10.782;2023-05-23T06:26:08;24.80;61.90
56322;DHT22;42227;6.376;-10.782;2023-05-23T06:28:38;24.50;62.80
56322;DHT22;42227;6.376;-10.782;2023-05-23T06:31:06;24.50;64.90
56322;DHT22;42227;6.376;-10.782;2023-05-23T06:33:35;24.50;65.60
56322;DHT22;42227;6.376;-10.782;2023-05-23T06:36:04;24.50;64.40
56322;DHT22;42227;6.376;-10.782;2023-05-23T06:38:32;24.80;63.00
56322;DHT22;42227;6.376;-10.782;2023-05-23T06:41:01;24.70;63.20
56322;DHT22;42227;6.376;-10.782;2023-05-23T06:43:30;24.50;63.60
56322;DHT22;42227;6.376;-10.782;2023-05-23T06:46:21;24.50;64.00
56322;DHT22;42227;6.376;-10.782;2023-05-23T06:48:50;24.40;64.70
56322;DHT22;42227;6.376;-10.782;2023-05-23T06:51:29;24.40;64.60
56322;DHT22;42227;6.376;-10.782;2023-05-23T06:53:59;24.30;64.60
56322;DHT22;42227;6.376;-10.782;2023-05-23T06:56:28;24.60;64.10
56322;DHT22;42227;6.376;-10.782;2023-05-23T06:58:58;24.50;64.70
56322;DHT22;42227;6.376;-10.782;2023-05-23T07:01:26;24.80;62.40
56322;DHT22;42227;6.376;-10.782;2023-05-23T07:03:55;24.60;62.30
56322;DHT22;42227;6.376;-10.782;2023-05-23T07:06:24;24.60;62.80
56322;DHT22;42227;6.376;-10.782;2023-05-23T07:08:53;24.50;63.00
56322;DHT22;42227;6.376;-10.782;2023-05-23T07:11:22;24.60;63.40
56322;DHT22;42227;6.376;-10.782;2023-05-23T07:13:55;24.60;63.00
56322;DHT22;42227;6.376;-10.782;2023-05-23T07:16:52;24.80;62.90
56322;DHT22;42227;6.376;-10.782;2023-05-23T07:19:21;24.90;60.80
56322;DHT22;42227;6.376;-10.782;2023-05-23T07:21:51;24.70;60.80
56322;DHT22;42227;6.376;-10.782;2023-05-23T07:24:21;24.90;62.00
56322;DHT22;42227;6.376;-10.782;2023-05-23T07:26:54;24.70;59.60
56322;DHT22;42227;6.376;-10.782;2023-05-23T07:29:24;24.70;60.90
56322;DHT22;42227;6.376;-10.782;2023-05-23T07:31:53;24.70;60.90
56322;DHT22;42227;6.376;-10.782;2023-05-23T07:34:23;24.90;60.00
56322;DHT22;42227;6.376;-10.782;2023-05-23T07:36:58;24.90;60.00
56322;DHT22;42227;6.376;-10.782;2023-05-23T07:39:32;24.80;60.50
56322;DHT22;42227;6.376;-10.782;2023-05-23T07:42:01;24.90;59.40
56322;DHT22;42227;6.376;-10.782;2023-05-23T07:44:29;24.90;59.10
56322;DHT22;42227;6.376;-10.782;2023-05-23T07:46:58;24.70;58.70
56322;DHT22;42227;6.376;-10.782;2023-05-23T07:49:27;24.70;59.70
56322;DHT22;42227;6.376;-10.782;2023-05-23T07:51:55;24.70;60.40
56322;DHT22;42227;6.376;-10.782;2023-05-23T07:54:24;24.70;59.10
56322;DHT22;42227;6.376;-10.782;2023-05-23T07:56:57;24.80;60.00
56322;DHT22;42227;6.376;-10.782;2023-05-23T07:59:26;24.90;59.90
56322;DHT22;42227;6.376;-10.782;2023-05-23T08:01:55;24.90;58.90
56322;DHT22;42227;6.376;-10.782;2023-05-23T08:04:28;24.90;58.50
56322;DHT22;42227;6.376;-10.782;2023-05-23T08:06:57;24.80;58.90
56322;DHT22;42227;6.376;-10.782;2023-05-23T08:09:36;24.80;59.70
56322;DHT22;42227;6.376;-10.782;2023-05-23T08:12:07;24.80;59.70
56322;DHT22;42227;6.376;-10.782;2023-05-23T08:14:37;24.90;60.40
56322;DHT22;42227;6.376;-10.782;2023-05-23T08:17:23;25.30;57.90
56322;DHT22;42227;6.376;-10.782;2023-05-23T08:19:52;25.60;56.50
56322;DHT22;42227;6.376;-10.782;2023-05-23T08:22:22;25.60;55.00
56322;DHT22;42227;6.376;-10.782;2023-05-23T08:24:50;25.40;56.40
56322;DHT22;42227;6.376;-10.782;2023-05-23T08:27:20;25.30;56.70
56322;DHT22;42227;6.376;-10.782;2023-05-23T08:29:54;25.10;57.10
56322;DHT22;42227;6.376;-10.782;2023-05-23T08:32:23;25.10;58.10
56322;DHT22;42227;6.376;-10.782;2023-05-23T08:34:51;25.30;56.40
56322;DHT22;42227;6.376;-10.782;2023-05-23T08:37:20;25.60;55.00
56322;DHT22;42227;6.376;-10.782;2023-05-23T08:39:51;25.50;53.70
56322;DHT22;42227;6.376;-10.782;2023-05-23T08:42:36;25.10;55.30
56322;DHT22;42227;6.376;-10.782;2023-05-23T08:45:08;24.90;56.70
56322;DHT22;42227;6.376;-10.782;2023-05-23T08:47:37;25.00;57.40
56322;DHT22;42227;6.376;-10.782;2023-05-23T08:50:06;24.80;58.10
56322;DHT22;42227;6.376;-10.782;2023-05-23T08:52:37;25.00;58.50
56322;DHT22;42227;6.376;-10.782;2023-05-23T08:55:10;24.90;57.40
56322;DHT22;42227;6.376;-10.782;2023-05-23T08:57:39;24.80;58.30
56322;DHT22;42227;6.376;-10.782;2023-05-23T09:00:21;24.60;58.90
56322;DHT22;42227;6.376;-10.782;2023-05-23T09:02:51;24.50;60.70
56322;DHT22;42227;6.376;-10.782;2023-05-23T09:05:49;24.60;61.10
56322;DHT22;42227;6.376;-10.782;2023-05-23T09:08:19;24.60;61.40
56322;DHT22;42227;6.376;-10.782;2023-05-23T09:10:50;24.50;61.60
56322;DHT22;42227;6.376;-10.782;2023-05-23T09:13:20;24.80;62.40
56322;DHT22;42227;6.376;-10.782;2023-05-23T09:16:04;24.80;59.40
56322;DHT22;42227;6.376;-10.782;2023-05-23T09:18:52;24.70;59.90
56322;DHT22;42227;6.376;-10.782;2023-05-23T09:21:23;24.70;61.40
56322;DHT22;42227;6.376;-10.782;2023-05-23T09:24:07;24.70;61.20
56322;DHT22;42227;6.376;-10.782;2023-05-23T09:26:36;24.70;60.20
56322;DHT22;42227;6.376;-10.782;2023-05-23T09:29:06;24.60;60.10
56322;DHT22;42227;6.376;-10.782;2023-05-23T09:31:35;24.70;60.90
56322;DHT22;42227;6.376;-10.782;2023-05-23T09:34:04;24.60;60.00
56322;DHT22;42227;6.376;-10.782;2023-05-23T09:36:32;24.50;60.50
56322;DHT22;42227;6.376;-10.782;2023-05-23T09:39:02;24.40;62.50
56322;DHT22;42227;6.376;-10.782;2023-05-23T09:41:34;24.60;63.40
56322;DHT22;42227;6.376;-10.782;2023-05-23T09:44:09;24.60;62.00
56322;DHT22;42227;6.376;-10.782;2023-05-23T09:46:38;24.50;61.70
56322;DHT22;42227;6.376;-10.782;2023-05-23T09:49:16;24.80;63.30
56322;DHT22;42227;6.376;-10.782;2023-05-23T09:51:59;25.10;60.00
56322;DHT22;42227;6.376;-10.782;2023-05-23T09:54:28;25.30;57.30
56322;DHT22;42227;6.376;-10.782;2023-05-23T09:56:58;25.10;57.60
56322;DHT22;42227;6.376;-10.782;2023-05-23T09:59:31;25.00;58.80
56322;DHT22;42227;6.376;-10.782;2023-05-23T10:02:02;24.80;60.40
56322;DHT22;42227;6.376;-10.782;2023-05-23T10:04:34;24.70;60.20
56322;DHT22;42227;6.376;-10.782;2023-05-23T10:07:12;24.80;61.30
56322;DHT22;42227;6.376;-10.782;2023-05-23T10:09:42;25.20;60.60
56322;DHT22;42227;6.376;-10.782;2023-05-23T10:15:04;24.90;57.40
56322;DHT22;42227;6.376;-10.782;2023-05-23T10:18:37;25.00;58.40
56322;DHT22;42227;6.376;-10.782;2023-05-23T10:20:51;24.90;57.50
56322;DHT22;42227;6.376;-10.782;2023-05-23T10:23:21;24.90;58.90
56322;DHT22;42227;6.376;-10.782;2023-05-23T10:25:59;25.10;60.00
56322;DHT22;42227;6.376;-10.782;2023-05-23T10:28:28;25.30;59.30
56322;DHT22;42227;6.376;-10.782;2023-05-23T10:30:56;25.40;56.90
56322;DHT22;42227;6.376;-10.782;2023-05-23T10:33:26;25.40;57.20
56322;DHT22;42227;6.376;-10.782;2023-05-23T10:36:12;25.40;56.60
56322;DHT22;42227;6.376;-10.782;2023-05-23T10:38:50;25.40;56.70
56322;DHT22;42227;6.376;-10.782;2023-05-23T10:41:30;25.50;56.20
56322;DHT22;42227;6.376;-10.782;2023-05-23T10:44:51;25.60;56.90
56322;DHT22;42227;6.376;-10.782;2023-05-23T10:47:02;26.00;55.00
56322;DHT22;42227;6.376;-10.782;2023-05-23T10:49:42;26.10;53.00
56322;DHT22;42227;6.376;-10.782;2023-05-23T10:52:15;26.10;52.10
56322;DHT22;42227;6.376;-10.782;2023-05-23T10:54:52;25.90;51.50
56322;DHT22;42227;6.376;-10.782;2023-05-23T10:57:24;25.80;51.80
56322;DHT22;42227;6.376;-10.782;2023-05-23T10:59:57;25.80;52.50
56322;DHT22;42227;6.376;-10.782;2023-05-23T11:02:27;25.90;53.20
56322;DHT22;42227;6.376;-10.782;2023-05-23T11:05:18;26.10;51.40
56322;DHT22;42227;6.376;-10.782;2023-05-23T11:08:13;26.30;50.30
56322;DHT22;42227;6.376;-10.782;2023-05-23T11:10:59;26.20;51.00
56322;DHT22;42227;6.376;-10.782;2023-05-23T11:16:42;26.10;52.50
56322;DHT22;42227;6.376;-10.782;2023-05-23T11:19:20;26.10;53.30
56322;DHT22;42227;6.376;-10.782;2023-05-23T11:22:00;26.50;54.40
56322;DHT22;42227;6.376;-10.782;2023-05-23T11:24:50;27.00;51.40
56322;DHT22;42227;6.376;-10.782;2023-05-23T11:32:33;26.60;51.50
56322;DHT22;42227;6.376;-10.782;2023-05-23T11:35:03;26.60;50.50
56322;DHT22;42227;6.376;-10.782;2023-05-23T11:37:35;26.60;50.80
56322;DHT22;42227;6.376;-10.782;2023-05-23T11:43:08;27.40;45.30
56322;DHT22;42227;6.376;-10.782;2023-05-23T11:45:37;27.50;44.30
56322;DHT22;42227;6.376;-10.782;2023-05-23T11:48:06;27.30;44.70
56322;DHT22;42227;6.376;-10.782;2023-05-23T11:50:49;27.20;46.30
56322;DHT22;42227;6.376;-10.782;2023-05-23T11:53:19;27.20;45.50
56322;DHT22;42227;6.376;-10.782;2023-05-23T11:55:53;27.20;44.70
56322;DHT22;42227;6.376;-10.782;2023-05-23T11:58:27;27.30;43.80
56322;DHT22;42227;6.376;-10.782;2023-05-23T12:01:07;27.70;40.90
56322;DHT22;42227;6.376;-10.782;2023-05-23T12:03:49;27.90;39.00
56322;DHT22;42227;6.376;-10.782;2023-05-23T12:06:19;27.90;36.50
56322;DHT22;42227;6.376;-10.782;2023-05-23T12:08:47;27.70;37.80
56322;DHT22;42227;6.376;-10.782;2023-05-23T12:11:16;27.60;40.20
56322;DHT22;42227;6.376;-10.782;2023-05-23T12:13:45;27.60;38.30
56322;DHT22;42227;6.376;-10.782;2023-05-23T12:16:14;27.70;37.40
56322;DHT22;42227;6.376;-10.782;2023-05-23T12:18:43;28.10;35.40
56322;DHT22;42227;6.376;-10.782;2023-05-23T12:21:12;28.40;34.50
56322;DHT22;42227;6.376;-10.782;2023-05-23T12:23:48;28.60;30.90
56322;DHT22;42227;6.376;-10.782;2023-05-23T12:26:17;28.40;31.90
56322;DHT22;42227;6.376;-10.782;2023-05-23T12:28:45;28.30;33.90
56322;DHT22;42227;6.376;-10.782;2023-05-23T12:31:24;28.30;35.30
56322;DHT22;42227;6.376;-10.782;2023-05-23T12:33:54;28.20;37.80
56322;DHT22;42227;6.376;-10.782;2023-05-23T12:36:28;28.50;36.80
56322;DHT22;42227;6.376;-10.782;2023-05-23T12:39:02;28.70;33.60
56322;DHT22;42227;6.376;-10.782;2023-05-23T12:41:37;28.60;32.20
56322;DHT22;42227;6.376;-10.782;2023-05-23T12:44:05;28.30;34.00
56322;DHT22;42227;6.376;-10.782;2023-05-23T12:46:34;28.20;36.80
56322;DHT22;42227;6.376;-10.782;2023-05-23T12:49:04;28.20;34.30
56322;DHT22;42227;6.376;-10.782;2023-05-23T12:51:43;28.30;36.40
56322;DHT22;42227;6.376;-10.782;2023-05-23T12:54:13;28.50;34.40
56322;DHT22;42227;6.376;-10.782;2023-05-23T12:56:41;28.40;35.80
56322;DHT22;42227;6.376;-10.782;2023-05-23T12:59:10;28.60;35.60
56322;DHT22;42227;6.376;-10.782;2023-05-23T13:01:38;28.60;37.70
56322;DHT22;42227;6.376;-10.782;2023-05-23T13:04:07;28.40;35.40
56322;DHT22;42227;6.376;-10.782;2023-05-23T13:06:39;28.50;36.60
56322;DHT22;42227;6.376;-10.782;2023-05-23T13:09:08;28.50;36.60
56322;DHT22;42227;6.376;-10.782;2023-05-23T13:11:39;28.50;37.50
56322;DHT22;42227;6.376;-10.782;2023-05-23T13:14:08;28.70;35.50
56322;DHT22;42227;6.376;-10.782;2023-05-23T13:16:38;28.80;35.00
56322;DHT22;42227;6.376;-10.782;2023-05-23T13:19:06;28.60;36.30
56322;DHT22;42227;6.376;-10.782;2023-05-23T13:21:35;28.50;36.10
56322;DHT22;42227;6.376;-10.782;2023-05-23T13:24:03;28.90;34.10
56322;DHT22;42227;6.376;-10.782;2023-05-23T13:26:33;28.80;31.20
56322;DHT22;42227;6.376;-10.782;2023-05-23T13:29:04;28.20;33.40
56322;DHT22;42227;6.376;-10.782;2023-05-23T13:31:33;28.30;33.30
56322;DHT22;42227;6.376;-10.782;2023-05-23T13:34:01;28.60;33.50
56322;DHT22;42227;6.376;-10.782;2023-05-23T13:36:33;28.60;31.60
56322;DHT22;42227;6.376;-10.782;2023-05-23T13:39:02;28.80;32.20
56322;DHT22;42227;6.376;-10.782;2023-05-23T13:41:32;28.50;31.60
56322;DHT22;42227;6.376;-10.782;2023-05-23T13:44:03;28.50;32.50
56322;DHT22;42227;6.376;-10.782;2023-05-23T13:46:34;28.50;33.00
56322;DHT22;42227;6.376;-10.782;2023-05-23T13:49:03;28.50;35.10
56322;DHT22;42227;6.376;-10.782;2023-05-23T13:51:32;28.70;35.20
56322;DHT22;42227;6.376;-10.782;2023-05-23T13:54:00;28.90;32.20
56322;DHT22;42227;6.376;-10.782;2023-05-23T13:56:29;28.50;31.90
56322;DHT22;42227;6.376;-10.782;2023-05-23T13:58:57;28.30;36.10
56322;DHT22;42227;6.376;-10.782;2023-05-23T14:01:26;28.80;32.60
56322;DHT22;42227;6.376;-10.782;2023-05-23T14:03:55;28.90;32.00
56322;DHT22;42227;6.376;-10.782;2023-05-23T14:06:23;28.90;32.70
56322;DHT22;42227;6.376;-10.782;2023-05-23T14:08:52;28.60;31.20
56322;DHT22;42227;6.376;-10.782;2023-05-23T14:11:20;28.40;31.80
56322;DHT22;42227;6.376;-10.782;2023-05-23T14:13:49;28.50;33.50
56322;DHT22;42227;6.376;-10.782;2023-05-23T14:16:17;28.80;31.40
56322;DHT22;42227;6.376;-10.782;2023-05-23T14:18:49;29.10;28.60
56322;DHT22;42227;6.376;-10.782;2023-05-23T14:21:17;29.00;27.70
56322;DHT22;42227;6.376;-10.782;2023-05-23T14:23:46;29.00;27.90
56322;DHT22;42227;6.376;-10.782;2023-05-23T14:26:21;28.70;29.70
56322;DHT22;42227;6.376;-10.782;2023-05-23T14:28:49;28.80;30.40
56322;DHT22;42227;6.376;-10.782;2023-05-23T14:31:18;29.00;29.40
56322;DHT22;42227;6.376;-10.782;2023-05-23T14:33:47;29.10;32.50
56322;DHT22;42227;6.376;-10.782;2023-05-23T14:36:16;28.50;31.20
56322;DHT22;42227;6.376;-10.782;2023-05-23T14:38:46;28.50;32.10
56322;DHT22;42227;6.376;-10.782;2023-05-23T14:41:15;28.40;32.50
56322;DHT22;42227;6.376;-10.782;2023-05-23T14:43:48;28.90;32.20
56322;DHT22;42227;6.376;-10.782;2023-05-23T14:46:17;28.60;31.50
56322;DHT22;42227;6.376;-10.782;2023-05-23T14:48:46;28.60;31.80
56322;DHT22;42227;6.376;-10.782;2023-05-23T14:51:17;28.70;32.30
56322;DHT22;42227;6.376;-10.782;2023-05-23T14:54:12;28.90;33.30
56322;DHT22;42227;6.376;-10.782;2023-05-23T14:56:41;29.00;28.90
56322;DHT22;42227;6.376;-10.782;2023-05-23T14:59:13;29.30;28.80
56322;DHT22;42227;6.376;-10.782;2023-05-23T15:01:42;29.30;30.00
56322;DHT22;42227;6.376;-10.782;2023-05-23T15:04:10;28.80;27.50
56322;DHT22;42227;6.376;-10.782;2023-05-23T15:06:40;28.50;28.00
56322;DHT22;42227;6.376;-10.782;2023-05-23T15:09:08;28.60;29.20
56322;DHT22;42227;6.376;-10.782;2023-05-23T15:11:36;28.50;29.20
56322;DHT22;42227;6.376;-10.782;2023-05-23T15:14:08;28.70;30.00
56322;DHT22;42227;6.376;-10.782;2023-05-23T15:16:37;28.50;31.40
56322;DHT22;42227;6.376;-10.782;2023-05-23T15:19:05;29.00;28.40
56322;DHT22;42227;6.376;-10.782;2023-05-23T15:21:34;29.10;27.20
56322;DHT22;42227;6.376;-10.782;2023-05-23T15:24:03;29.10;27.60
56322;DHT22;42227;6.376;-10.782;2023-05-23T15:26:33;28.60;29.20
56322;DHT22;42227;6.376;-10.782;2023-05-23T15:29:02;28.50;29.70
56322;DHT22;42227;6.376;-10.782;2023-05-23T15:31:32;28.40;29.30
56322;DHT22;42227;6.376;-10.782;2023-05-23T15:34:01;28.50;28.40
56322;DHT22;42227;6.376;-10.782;2023-05-23T15:36:30;28.60;26.80
56322;DHT22;42227;6.376;-10.782;2023-05-23T15:38:59;28.40;26.60
56322;DHT22;42227;6.376;-10.782;2023-05-23T15:41:33;28.60;27.40
56322;DHT22;42227;6.376;-10.782;2023-05-23T15:44:02;28.40;26.90
56322;DHT22;42227;6.376;-10.782;2023-05-23T15:46:36;28.60;25.70
56322;DHT22;42227;6.376;-10.782;2023-05-23T15:49:10;28.70;26.00
56322;DHT22;42227;6.376;-10.782;2023-05-23T15:51:56;28.60;26.90
56322;DHT22;42227;6.376;-10.782;2023-05-23T15:54:31;28.50;24.80
56322;DHT22;42227;6.376;-10.782;2023-05-23T15:57:02;28.80;24.90
56322;DHT22;42227;6.376;-10.782;2023-05-23T15:59:32;28.80;25.20
56322;DHT22;42227;6.376;-10.782;2023-05-23T16:02:13;29.00;25.20
56322;DHT22;42227;6.376;-10.782;2023-05-23T16:05:00;28.70;23.90
56322;DHT22;42227;6.376;-10.782;2023-05-23T16:08:05;28.50;27.10
56322;DHT22;42227;6.376;-10.782;2023-05-23T16:10:40;28.20;30.00